createdAt,value
2019-02-15T00:01:13.475Z,23.83
2019-02-15T00:06:47.255Z,24.23
2019-02-15T00:09:25.723Z,24.27
2019-02-15T00:12:06.708Z,23.93
2019-02-15T00:14:57.620Z,24.77
2019-02-15T00:17:48.500Z,24.93
2019-02-15T00:20:30.469Z,23.70
2019-02-15T00:23:11.823Z,26.67
2019-02-15T00:25:54.172Z,23.60
2019-02-15T00:28:34.748Z,27.97
2019-02-15T00:31:16.680Z,24.87
2019-02-15T00:33:58.749Z,26.40
2019-02-15T00:36:46.363Z,23.47
2019-02-15T00:39:23.374Z,22.73
2019-02-15T00:42:04.144Z,23.27
2019-02-15T00:44:44.917Z,28.87
2019-02-15T00:47:27.267Z,25.87
2019-02-15T00:50:09.619Z,21.97
2019-02-15T00:52:52.368Z,24.70
2019-02-15T00:55:37.464Z,23.93
2019-02-15T00:58:39.663Z,24.47
2019-02-15T01:04:13.088Z,28.80
2019-02-15T01:07:13.768Z,37.73
2019-02-15T01:09:55.733Z,42.70
2019-02-15T01:12:39.678Z,37.37
2019-02-15T01:18:04.547Z,26.80
2019-02-15T01:20:45.244Z,25.27
2019-02-15T01:23:27.111Z,23.50
2019-02-15T01:26:10.027Z,26.77
2019-02-15T01:28:52.408Z,28.50
2019-02-15T01:31:34.736Z,26.27
2019-02-15T01:34:20.427Z,27.47
2019-02-15T01:37:13.186Z,33.33
2019-02-15T01:39:46.737Z,32.30
2019-02-15T01:42:46.962Z,32.40
2019-02-15T01:45:29.388Z,24.00
2019-02-15T01:48:09.614Z,25.60
2019-02-15T01:50:50.381Z,24.20
2019-02-15T01:53:34.052Z,25.07
2019-02-15T01:56:14.230Z,27.33
2019-02-15T01:58:57.560Z,25.53
2019-02-15T02:01:38.208Z,22.73
2019-02-15T02:04:18.798Z,23.37
2019-02-15T02:06:59.284Z,23.93
2019-02-15T02:12:24.105Z,23.97
2019-02-15T02:15:04.868Z,23.07
2019-02-15T02:17:47.659Z,21.93
2019-02-15T02:23:11.563Z,21.97
2019-02-15T02:25:51.997Z,21.23
2019-02-15T02:28:32.398Z,22.90
2019-02-15T02:31:13.274Z,24.77
2019-02-15T02:33:53.838Z,24.40
2019-02-15T02:39:17.547Z,22.20
2019-02-15T02:41:58.962Z,20.33
2019-02-15T02:44:41.811Z,20.53
2019-02-15T02:47:22.903Z,21.13
2019-02-15T02:50:03.740Z,20.20
2019-02-15T02:52:44.563Z,21.03
2019-02-15T02:55:25.182Z,22.13
2019-02-15T02:58:05.753Z,20.57
2019-02-15T03:00:48.063Z,22.20
2019-02-15T03:03:30.815Z,21.37
2019-02-15T03:06:11.804Z,20.07
2019-02-15T03:08:59.469Z,20.47
2019-02-15T03:11:36.042Z,21.43
2019-02-15T03:14:16.657Z,23.33
2019-02-15T03:16:57.379Z,18.60
2019-02-15T03:19:38.010Z,20.07
2019-02-15T03:22:18.801Z,21.00
2019-02-15T03:25:01.325Z,24.87
2019-02-15T03:27:48.176Z,27.80
2019-02-15T03:30:26.207Z,30.37
2019-02-15T03:33:13.291Z,29.73
2019-02-15T03:38:58.783Z,30.77
2019-02-15T03:41:39.988Z,33.40
2019-02-15T03:44:22.625Z,33.57
2019-02-15T03:47:03.575Z,31.00
2019-02-15T03:49:44.573Z,27.33
2019-02-15T03:52:25.247Z,29.10
2019-02-15T03:55:09.358Z,29.47
2019-02-15T03:57:49.582Z,25.50
2019-02-15T04:00:30.487Z,26.00
2019-02-15T04:03:11.477Z,27.97
2019-02-15T04:05:53.650Z,26.33
2019-02-15T04:08:34.061Z,26.83
2019-02-15T04:11:14.943Z,22.70
2019-02-15T04:13:55.724Z,20.70
2019-02-15T04:16:36.336Z,24.33
2019-02-15T04:19:18.500Z,19.60
2019-02-15T04:22:00.480Z,22.43
2019-02-15T04:24:46.009Z,28.40
2019-02-15T04:27:23.723Z,31.10
2019-02-15T04:30:04.788Z,32.00
2019-02-15T04:32:45.275Z,31.20
2019-02-15T04:35:26.187Z,34.97
2019-02-15T04:38:09.252Z,29.57
2019-02-15T04:40:48.953Z,34.30
2019-02-15T04:43:29.738Z,23.73
2019-02-15T04:46:10.537Z,26.37
2019-02-15T04:48:53.479Z,24.80
2019-02-15T04:51:34.063Z,25.73
2019-02-15T04:54:14.489Z,21.57
2019-02-15T04:56:55.162Z,22.57
2019-02-15T04:59:35.894Z,23.47
2019-02-15T05:02:18.846Z,26.07
2019-02-15T05:04:59.580Z,21.97
2019-02-15T05:07:40.529Z,20.90
2019-02-15T05:10:23.238Z,21.67
2019-02-15T05:13:03.528Z,22.27
2019-02-15T05:15:44.605Z,22.17
2019-02-15T05:18:25.268Z,19.43
2019-02-15T05:21:05.986Z,22.33
2019-02-15T05:23:46.299Z,23.37
2019-02-15T05:26:27.408Z,17.37
2019-02-15T05:29:07.993Z,20.33
2019-02-15T05:31:48.526Z,21.30
2019-02-15T05:34:29.333Z,21.10
2019-02-15T05:37:10.175Z,22.57
2019-02-15T05:39:50.998Z,21.07
2019-02-15T05:42:33.323Z,20.73
2019-02-15T05:45:13.710Z,21.63
2019-02-15T05:47:54.249Z,21.27
2019-02-15T05:50:35.104Z,17.77
2019-02-15T05:53:15.971Z,21.20
2019-02-15T05:55:58.469Z,19.30
2019-02-15T05:58:38.922Z,18.00
2019-02-15T06:01:20.568Z,20.43
2019-02-15T06:04:02.064Z,22.87
2019-02-15T06:06:42.740Z,18.03
2019-02-15T06:09:23.364Z,19.90
2019-02-15T06:12:04.170Z,19.53
2019-02-15T06:14:44.620Z,18.20
2019-02-15T06:17:27.832Z,19.10
2019-02-15T06:20:08.131Z,20.07
2019-02-15T06:22:48.563Z,18.73
2019-02-15T06:25:29.342Z,21.57
2019-02-15T06:28:10.581Z,17.93
2019-02-15T06:30:51.398Z,16.57
2019-02-15T06:33:31.970Z,18.17
2019-02-15T06:36:12.794Z,18.20
2019-02-15T06:38:53.189Z,21.10
2019-02-15T06:41:33.974Z,18.60
2019-02-15T06:44:15.269Z,25.30
2019-02-15T06:46:56.258Z,20.17
2019-02-15T06:49:36.740Z,20.33
2019-02-15T06:52:17.756Z,19.97
2019-02-15T06:54:58.337Z,20.57
2019-02-15T06:57:41.094Z,25.80
2019-02-15T07:03:26.825Z,22.50
2019-02-15T07:06:07.625Z,22.63
2019-02-15T07:08:50.933Z,19.50
2019-02-15T07:11:31.602Z,18.40
2019-02-15T07:14:12.519Z,23.07
2019-02-15T07:16:53.036Z,22.03
2019-02-15T07:19:35.203Z,23.77
2019-02-15T07:22:18.128Z,22.20
2019-02-15T07:25:00.270Z,26.77
2019-02-15T07:27:41.244Z,25.80
2019-02-15T07:30:21.806Z,24.83
2019-02-15T07:33:06.722Z,27.33
2019-02-15T07:35:45.187Z,28.13
2019-02-15T07:38:25.935Z,27.70
2019-02-15T07:41:06.702Z,34.77
2019-02-15T07:43:47.519Z,36.73
2019-02-15T07:46:28.311Z,32.10
2019-02-15T07:49:09.365Z,29.33
2019-02-15T07:51:50.174Z,32.00
2019-02-15T07:54:30.795Z,26.93
2019-02-15T07:57:11.786Z,30.17
2019-02-15T07:59:52.895Z,23.77
2019-02-15T08:02:35.599Z,34.83
2019-02-15T08:05:16.106Z,30.93
2019-02-15T08:07:56.336Z,29.00
2019-02-15T08:10:37.147Z,24.83
2019-02-15T08:13:17.730Z,23.27
2019-02-15T08:15:58.234Z,22.40
2019-02-15T08:18:38.959Z,24.90
2019-02-15T08:21:19.595Z,32.67
2019-02-15T08:24:01.723Z,31.60
2019-02-15T08:26:42.463Z,25.17
2019-02-15T08:29:24.744Z,28.00
2019-02-15T08:32:05.026Z,38.63
2019-02-15T08:34:45.938Z,38.73
2019-02-15T08:37:26.782Z,31.67
2019-02-15T08:40:09.622Z,25.03
2019-02-15T08:42:50.290Z,23.43
2019-02-15T08:45:30.924Z,22.10
2019-02-15T08:48:11.729Z,24.23
2019-02-15T08:50:52.439Z,23.23
2019-02-15T08:53:32.964Z,25.93
2019-02-15T08:56:13.654Z,23.63
2019-02-15T08:58:56.260Z,28.80
2019-02-15T09:01:37.390Z,26.67
2019-02-15T09:04:22.203Z,27.67
2019-02-15T09:07:05.118Z,32.87
2019-02-15T09:09:45.667Z,27.40
2019-02-15T09:12:26.219Z,27.03
2019-02-15T09:15:06.812Z,31.03
2019-02-15T09:17:47.626Z,27.33
2019-02-15T09:20:28.029Z,28.47
2019-02-15T09:23:08.731Z,25.47
2019-02-15T09:25:52.186Z,29.27
2019-02-15T09:28:53.895Z,30.23
2019-02-15T09:31:34.736Z,25.57
2019-02-15T09:34:15.317Z,28.53
2019-02-15T09:39:39.562Z,26.30
2019-02-15T09:42:20.782Z,26.30
2019-02-15T09:45:01.374Z,29.23
2019-02-15T09:47:44.013Z,28.87
2019-02-15T09:50:27.869Z,27.23
2019-02-15T09:55:53.650Z,32.23
2019-02-15T09:58:34.451Z,30.67
2019-02-15T10:01:14.924Z,30.13
2019-02-15T10:04:00.202Z,30.43
2019-02-15T10:06:38.421Z,27.60
2019-02-15T10:09:20.462Z,32.50
2019-02-15T10:12:01.089Z,42.07
2019-02-15T10:14:41.718Z,32.03
2019-02-15T10:17:22.437Z,30.90
2019-02-15T10:20:05.161Z,37.70
2019-02-15T10:25:30.502Z,33.77
2019-02-15T10:30:59.134Z,30.93
2019-02-15T10:36:30.942Z,30.00
2019-02-15T10:39:14.722Z,29.30
2019-02-15T10:44:45.648Z,29.40
2019-02-15T10:47:28.153Z,27.30
2019-02-15T10:50:08.888Z,30.27
2019-02-15T10:52:50.012Z,29.37
2019-02-15T10:55:33.532Z,28.07
2019-02-15T10:58:14.131Z,26.23
2019-02-15T11:00:55.031Z,28.30
2019-02-15T11:03:36.648Z,31.70
2019-02-15T11:06:18.128Z,31.73
2019-02-15T11:11:42.547Z,31.00
2019-02-15T11:14:23.215Z,31.77
2019-02-15T11:17:07.612Z,30.60
2019-02-15T11:22:36.756Z,31.67
2019-02-15T11:25:17.545Z,30.17
2019-02-15T11:30:48.942Z,31.20
2019-02-15T11:36:18.271Z,29.90
2019-02-15T11:39:00.433Z,29.70
2019-02-15T11:41:42.448Z,28.63
2019-02-15T11:44:23.603Z,27.60
2019-02-15T11:47:07.744Z,31.10
2019-02-15T11:49:48.731Z,29.97
2019-02-15T11:52:31.622Z,29.20
2019-02-15T11:55:11.970Z,28.87
2019-02-15T11:57:54.445Z,32.97
2019-02-15T12:00:36.736Z,37.90
2019-02-15T12:03:17.709Z,31.03
2019-02-15T12:08:55.329Z,29.57
2019-02-15T12:11:35.740Z,27.37
2019-02-15T12:14:22.578Z,27.40
2019-02-15T12:17:05.668Z,26.73
2019-02-15T12:19:43.792Z,29.00
2019-02-15T12:22:24.538Z,32.03
2019-02-15T12:25:05.060Z,27.70
2019-02-15T12:27:45.941Z,26.73
2019-02-15T12:33:17.184Z,28.13
2019-02-15T12:36:01.371Z,34.70
2019-02-15T12:41:28.142Z,26.03
2019-02-15T12:44:10.995Z,26.97
2019-02-15T12:49:42.868Z,25.50
2019-02-15T12:55:10.024Z,25.40
2019-02-15T12:57:51.891Z,24.53
2019-02-15T13:03:19.551Z,62.70
2019-02-15T13:08:45.610Z,25.43
2019-02-15T13:14:17.783Z,22.13
2019-02-15T13:16:58.610Z,22.30
2019-02-15T13:22:28.446Z,22.00
2019-02-15T13:27:53.141Z,19.63
2019-02-15T13:30:35.542Z,20.43
2019-02-15T13:36:04.725Z,19.40
2019-02-15T13:41:41.499Z,16.57
2019-02-15T13:44:22.046Z,19.10
2019-02-15T13:47:02.794Z,19.53
2019-02-15T13:58:20.824Z,18.27
2019-02-15T14:01:01.149Z,17.20
2019-02-15T14:06:37.166Z,18.87
2019-02-15T14:09:21.058Z,17.33
2019-02-15T14:12:03.033Z,18.03
2019-02-15T14:14:44.675Z,18.07
2019-02-15T14:17:25.974Z,18.77
2019-02-15T14:20:07.002Z,20.37
2019-02-15T14:25:38.987Z,22.47
2019-02-15T14:28:19.729Z,19.83
2019-02-15T14:33:45.169Z,18.80
2019-02-15T14:36:28.504Z,21.07
2019-02-15T14:39:11.952Z,21.87
2019-02-15T14:41:52.933Z,20.70
2019-02-15T14:44:34.612Z,21.07
2019-02-15T14:50:10.498Z,22.60
2019-02-15T14:52:50.448Z,24.33
2019-02-15T14:55:31.456Z,23.03
2019-02-15T14:58:12.334Z,21.33
2019-02-15T15:00:53.040Z,21.33
2019-02-15T15:03:33.891Z,24.23
2019-02-15T15:06:14.900Z,21.27
2019-02-15T15:08:58.023Z,22.90
2019-02-15T15:17:09.532Z,22.87
2019-02-15T15:19:50.392Z,20.70
2019-02-15T15:22:31.425Z,22.87
2019-02-15T15:25:12.104Z,22.23
2019-02-15T15:27:53.377Z,23.10
2019-02-15T15:30:34.067Z,21.60
2019-02-15T15:33:14.670Z,21.20
2019-02-15T15:35:55.607Z,22.80
2019-02-15T15:41:26.073Z,22.03
2019-02-15T15:44:06.895Z,20.97
2019-02-15T15:46:48.410Z,22.17
2019-02-15T15:49:29.143Z,21.73
2019-02-15T15:52:09.880Z,22.07
2019-02-15T15:54:53.751Z,26.30
2019-02-15T15:57:34.042Z,22.00
2019-02-15T16:00:18.181Z,21.00
2019-02-15T16:05:50.544Z,22.23
2019-02-15T16:08:31.106Z,22.67
2019-02-15T16:11:11.741Z,21.70
2019-02-15T16:13:52.334Z,21.80
2019-02-15T16:16:33.050Z,21.63
2019-02-15T16:19:13.713Z,21.50
2019-02-15T16:21:54.341Z,21.73
2019-02-15T16:24:35.065Z,21.37
2019-02-15T16:27:16.927Z,21.53
2019-02-15T16:29:57.362Z,21.57
2019-02-15T16:32:38.127Z,20.50
2019-02-15T16:35:22.226Z,21.00
2019-02-15T16:38:02.414Z,20.90
2019-02-15T16:40:43.203Z,23.73
2019-02-15T16:46:13.153Z,23.70
2019-02-15T16:48:54.145Z,24.47
2019-02-15T16:51:35.230Z,34.20
2019-02-15T16:54:15.947Z,30.80
2019-02-15T16:56:56.587Z,26.67
2019-02-15T17:02:21.552Z,25.90
2019-02-15T17:05:02.208Z,29.83
2019-02-15T17:07:43.102Z,30.63
2019-02-15T17:10:24.072Z,28.03
2019-02-15T17:13:04.834Z,30.17
2019-02-15T17:15:45.735Z,29.50
2019-02-15T17:18:26.690Z,30.27
2019-02-15T17:21:07.335Z,27.60
2019-02-15T17:23:48.237Z,29.40
2019-02-15T17:26:29.102Z,25.63
2019-02-15T17:29:10.039Z,26.33
2019-02-15T17:31:54.022Z,30.40
2019-02-15T17:34:35.251Z,27.00
2019-02-15T17:37:15.579Z,28.70
2019-02-15T17:39:57.245Z,29.73
2019-02-15T17:42:37.625Z,30.87
2019-02-15T17:45:18.554Z,30.17
2019-02-15T17:47:59.031Z,31.53
2019-02-15T17:50:39.961Z,30.67
2019-02-15T17:53:21.071Z,33.37
2019-02-15T17:56:02.037Z,29.67
2019-02-15T17:58:43.062Z,34.07
2019-02-15T18:01:27.355Z,30.63
2019-02-15T18:06:52.523Z,35.13
2019-02-15T18:09:32.995Z,36.27
2019-02-15T18:12:17.065Z,37.13
2019-02-15T18:17:47.160Z,35.10
2019-02-15T18:20:27.981Z,32.07
2019-02-15T18:23:09.114Z,31.33
2019-02-15T18:25:51.131Z,31.57
2019-02-15T18:28:32.299Z,34.57
2019-02-15T18:31:12.903Z,32.33
2019-02-15T18:33:53.803Z,35.50
2019-02-15T18:36:34.515Z,32.37
2019-02-15T18:39:14.932Z,31.43
2019-02-15T18:41:56.011Z,33.27
2019-02-15T18:44:37.069Z,40.00
2019-02-15T18:47:17.940Z,37.67
2019-02-15T18:49:58.570Z,37.80
2019-02-15T18:52:39.408Z,38.73
2019-02-15T18:55:20.120Z,32.37
2019-02-15T18:58:00.889Z,37.00
2019-02-15T19:00:41.620Z,32.73
2019-02-15T19:03:22.601Z,41.63
2019-02-15T19:06:03.424Z,43.40
2019-02-15T19:08:45.475Z,44.30
2019-02-15T19:11:26.640Z,43.43
2019-02-15T19:14:07.475Z,44.03
2019-02-15T19:16:48.295Z,44.87
2019-02-15T19:19:29.471Z,44.97
2019-02-15T19:22:10.645Z,45.40
2019-02-15T19:24:51.225Z,43.57
2019-02-15T19:27:31.947Z,44.37
2019-02-15T19:30:12.788Z,46.83
2019-02-15T19:32:53.653Z,45.67
2019-02-15T19:35:34.415Z,58.17
2019-02-15T19:38:15.471Z,49.50
2019-02-15T19:40:56.359Z,49.57
2019-02-15T19:43:37.391Z,49.73
2019-02-15T19:46:18.470Z,44.97
2019-02-15T19:48:46.958Z,47.20
2019-02-15T19:51:36.010Z,40.60
2019-02-15T19:54:25.603Z,40.97
2019-02-15T19:57:13.385Z,40.33
2019-02-15T20:00:21.376Z,40.40
2019-02-15T20:03:09.476Z,42.33
2019-02-15T20:05:57.252Z,43.10
2019-02-15T20:08:38.339Z,41.10
2019-02-15T20:11:19.014Z,43.17
2019-02-15T20:14:00.054Z,41.23
2019-02-15T20:16:41.414Z,38.97
2019-02-15T20:19:22.643Z,42.50
2019-02-15T20:24:49.426Z,36.90
2019-02-15T20:27:30.221Z,39.20
2019-02-15T20:30:13.986Z,36.77
2019-02-15T20:35:38.844Z,37.00
2019-02-15T20:38:19.425Z,35.57
2019-02-15T20:41:00.094Z,37.30
2019-02-15T20:43:41.251Z,42.13
2019-02-15T20:46:22.092Z,38.33
2019-02-15T20:49:05.093Z,43.27
2019-02-15T20:54:30.408Z,43.97
2019-02-15T20:57:10.840Z,44.37
2019-02-15T20:59:51.594Z,36.60
2019-02-15T21:02:32.245Z,39.23
2019-02-15T21:05:14.009Z,36.67
2019-02-15T21:07:55.082Z,40.27
2019-02-15T21:10:35.794Z,43.93
2019-02-15T21:16:05.249Z,40.80
2019-02-15T21:18:46.225Z,39.90
2019-02-15T21:21:30.675Z,41.27
2019-02-15T21:24:12.086Z,40.70
2019-02-15T21:26:52.398Z,42.07
2019-02-15T21:29:33.427Z,45.03
2019-02-15T21:32:14.097Z,40.97
2019-02-15T21:34:54.880Z,39.00
2019-02-15T21:37:35.335Z,38.53
2019-02-15T21:40:18.965Z,39.77
2019-02-15T21:45:44.133Z,40.57
2019-02-15T21:48:24.597Z,36.70
2019-02-15T21:51:05.460Z,39.37
2019-02-15T21:53:45.969Z,37.77
2019-02-15T21:56:26.812Z,33.80
2019-02-15T22:01:52.350Z,30.83
2019-02-15T22:04:32.546Z,30.47
2019-02-15T22:07:13.414Z,28.87
2019-02-15T22:09:54.503Z,29.47
2019-02-15T22:12:35.134Z,29.47
2019-02-15T22:17:59.916Z,29.20
2019-02-15T22:20:40.630Z,34.83
2019-02-15T22:23:21.166Z,31.93
2019-02-15T22:26:01.499Z,31.00
2019-02-15T22:28:42.032Z,31.33
2019-02-15T22:31:22.501Z,32.63
2019-02-15T22:34:03.631Z,33.40
2019-02-15T22:36:44.247Z,30.70
2019-02-15T22:39:25.725Z,34.13
2019-02-15T22:42:06.163Z,32.83
2019-02-15T22:44:47.022Z,34.40
2019-02-15T22:47:28.308Z,32.23
2019-02-15T22:50:09.445Z,32.30
2019-02-15T22:52:50.811Z,35.53
2019-02-15T22:55:19.227Z,34.10
2019-02-15T22:58:07.034Z,35.73
2019-02-15T23:01:14.296Z,34.13
2019-02-15T23:04:02.062Z,31.00
2019-02-15T23:06:45.620Z,30.67
2019-02-15T23:09:26.840Z,31.17
2019-02-15T23:12:07.289Z,34.57
2019-02-15T23:14:48.204Z,31.83
2019-02-15T23:17:17.123Z,39.27
2019-02-15T23:20:06.446Z,44.43
2019-02-15T23:22:54.499Z,43.23
2019-02-15T23:25:42.450Z,44.20
2019-02-15T23:28:30.473Z,42.47
2019-02-15T23:31:18.584Z,41.13
2019-02-15T23:34:06.348Z,38.37
2019-02-15T23:36:54.112Z,33.83
2019-02-15T23:39:41.867Z,33.87
2019-02-15T23:42:29.898Z,34.80
2019-02-15T23:45:17.649Z,38.73
2019-02-15T23:48:05.438Z,35.30
2019-02-15T23:50:55.177Z,37.43
2019-02-15T23:53:42.694Z,39.43
2019-02-15T23:56:30.457Z,39.80
2019-02-15T23:59:18.499Z,36.50
